createdAt,value
2022-12-28T00:00:26.486Z,0
2022-12-28T00:01:26.569Z,0
2022-12-28T00:02:27.920Z,0
2022-12-28T00:03:28.275Z,0
2022-12-28T00:04:28.515Z,0
2022-12-28T00:05:28.458Z,0
2022-12-28T00:06:29.698Z,0
2022-12-28T00:07:30.189Z,0
2022-12-28T00:08:30.115Z,0
2022-12-28T00:09:30.368Z,0
2022-12-28T00:11:35.869Z,0
2022-12-28T00:11:52.540Z,0
2022-12-28T00:12:52.174Z,0
2022-12-28T00:13:52.891Z,0
2022-12-28T00:14:56.810Z,0
2022-12-28T00:15:54.100Z,0
2022-12-28T00:16:54.507Z,0
2022-12-28T00:17:54.155Z,0
2022-12-28T00:18:55.364Z,0
2022-12-28T00:19:55.643Z,0
2022-12-28T00:20:56.742Z,0
2022-12-28T00:21:56.965Z,0
2022-12-28T00:22:57.918Z,0
2022-12-28T00:23:58.589Z,0
2022-12-28T00:24:59.928Z,0
2022-12-28T00:25:59.858Z,0
2022-12-28T00:27:00.513Z,0
2022-12-28T00:28:02.076Z,0
2022-12-28T00:29:11.279Z,0
2022-12-28T00:30:02.766Z,0
2022-12-28T00:31:02.993Z,0
2022-12-28T00:32:03.364Z,0
2022-12-28T00:33:03.588Z,0
2022-12-28T00:34:03.577Z,0
2022-12-28T00:35:05.121Z,0
2022-12-28T00:36:05.666Z,0
2022-12-28T00:37:23.469Z,0
2022-12-28T00:38:06.388Z,0
2022-12-28T00:39:07.319Z,0
2022-12-28T00:40:08.601Z,0
2022-12-28T00:41:08.958Z,0
2022-12-28T00:42:09.467Z,0
2022-12-28T00:43:09.395Z,0
2022-12-28T00:44:09.849Z,0
2022-12-28T00:45:11.077Z,0
2022-12-28T00:46:11.523Z,0
2022-12-28T00:47:11.849Z,0
2022-12-28T00:48:12.045Z,0
2022-12-28T00:49:12.553Z,0
2022-12-28T00:50:12.791Z,0
2022-12-28T00:51:12.738Z,0
2022-12-28T00:52:13.220Z,0
2022-12-28T00:53:13.741Z,0
2022-12-28T00:54:13.792Z,0
2022-12-28T00:55:14.716Z,0
2022-12-28T00:56:16.042Z,0
2022-12-28T00:57:16.520Z,0
2022-12-28T00:58:16.770Z,0
2022-12-28T00:59:16.434Z,0
2022-12-28T01:00:17.336Z,0
2022-12-28T01:01:19.094Z,0
2022-12-28T01:02:20.121Z,0
2022-12-28T01:03:20.326Z,0
2022-12-28T01:04:20.160Z,0
2022-12-28T01:05:21.127Z,0
2022-12-28T01:06:22.432Z,0
2022-12-28T01:07:22.059Z,0
2022-12-28T01:08:23.012Z,0
2022-12-28T01:09:23.225Z,0
2022-12-28T01:10:23.752Z,0
2022-12-28T01:11:23.708Z,0
2022-12-28T01:12:24.652Z,0
2022-12-28T01:13:24.975Z,0
2022-12-28T01:14:26.041Z,0
2022-12-28T01:15:26.264Z,0
2022-12-28T01:16:27.106Z,0
2022-12-28T01:17:27.209Z,0
2022-12-28T01:18:28.725Z,0
2022-12-28T01:19:28.365Z,0
2022-12-28T01:20:29.942Z,0
2022-12-28T01:21:30.186Z,0
2022-12-28T01:22:30.414Z,0
2022-12-28T01:23:30.776Z,0
2022-12-28T01:24:32.391Z,0
2022-12-28T01:25:32.336Z,0
2022-12-28T01:26:33.551Z,0
2022-12-28T01:27:34.489Z,0
2022-12-28T01:28:34.203Z,0
2022-12-28T01:29:35.120Z,0
2022-12-28T01:30:38.844Z,0
2022-12-28T01:31:37.683Z,0
2022-12-28T01:32:37.723Z,0
2022-12-28T01:33:37.854Z,0
2022-12-28T01:34:39.178Z,0
2022-12-28T01:35:39.416Z,0
2022-12-28T01:36:40.349Z,0
2022-12-28T01:37:40.268Z,0
2022-12-28T01:38:41.771Z,0
2022-12-28T01:39:41.424Z,0
2022-12-28T01:40:42.649Z,0
2022-12-28T01:41:42.279Z,0
2022-12-28T01:42:42.939Z,0
2022-12-28T01:43:44.160Z,0
2022-12-28T01:44:44.764Z,0
2022-12-28T01:45:46.162Z,0
2022-12-28T01:46:46.513Z,0
2022-12-28T01:47:47.732Z,0
2022-12-28T01:48:47.937Z,0
2022-12-28T01:49:47.868Z,0
2022-12-28T01:50:49.128Z,0
2022-12-28T01:51:50.099Z,0
2022-12-28T01:52:50.323Z,0
2022-12-28T01:53:50.809Z,0
2022-12-28T01:54:50.849Z,0
2022-12-28T01:55:51.124Z,0
2022-12-28T01:56:51.764Z,0
2022-12-28T01:57:52.404Z,0
2022-12-28T01:58:52.744Z,0
2022-12-28T01:59:53.963Z,0
2022-12-28T02:00:53.892Z,0
2022-12-28T02:01:54.881Z,0
2022-12-28T02:02:55.698Z,0
2022-12-28T02:03:55.391Z,0
2022-12-28T02:04:56.705Z,0
2022-12-28T02:05:58.191Z,0
2022-12-28T02:06:58.423Z,0
2022-12-28T02:07:59.631Z,0
2022-12-28T02:08:59.896Z,0
2022-12-28T02:10:55.460Z,0
2022-12-28T02:11:12.977Z,0
2022-12-28T02:12:13.232Z,0
2022-12-28T02:13:13.385Z,0
2022-12-28T02:14:13.061Z,0
2022-12-28T02:15:17.073Z,0
2022-12-28T02:16:13.958Z,0
2022-12-28T02:17:14.436Z,0
2022-12-28T02:18:14.433Z,0
2022-12-28T02:19:15.359Z,0
2022-12-28T02:20:16.293Z,0
2022-12-28T02:21:16.868Z,0
2022-12-28T02:22:17.397Z,0
2022-12-28T02:23:17.601Z,0
2022-12-28T02:24:17.515Z,0
2022-12-28T02:25:25.861Z,0
2022-12-28T02:26:26.514Z,0
2022-12-28T02:27:27.476Z,0
2022-12-28T02:28:28.427Z,0
2022-12-28T02:29:29.373Z,0
2022-12-28T02:30:29.345Z,0
2022-12-28T02:31:30.441Z,0
2022-12-28T02:32:31.655Z,0
2022-12-28T02:33:32.195Z,0
2022-12-28T02:34:32.524Z,0
2022-12-28T02:35:33.303Z,0
2022-12-28T02:36:33.857Z,0
2022-12-28T02:37:34.376Z,0
2022-12-28T02:38:34.572Z,0
2022-12-28T02:39:34.797Z,0
2022-12-28T02:40:35.444Z,0
2022-12-28T02:41:36.684Z,0
2022-12-28T02:42:36.620Z,0
2022-12-28T02:43:36.969Z,0
2022-12-28T02:44:38.471Z,0
2022-12-28T02:45:38.818Z,0
2022-12-28T02:46:38.931Z,0
2022-12-28T02:47:40.434Z,0
2022-12-28T02:48:40.694Z,0
2022-12-28T02:49:40.645Z,0
2022-12-28T02:50:41.870Z,0
2022-12-28T02:51:42.122Z,0
2022-12-28T02:52:43.354Z,0
2022-12-28T02:53:43.293Z,0
2022-12-28T02:54:43.916Z,0
2022-12-28T02:55:45.200Z,0
2022-12-28T02:56:44.875Z,0
2022-12-28T02:57:46.383Z,0
2022-12-28T02:58:46.878Z,0
2022-12-28T02:59:46.267Z,0
2022-12-28T03:00:47.469Z,0
2022-12-28T03:01:48.562Z,0
2022-12-28T03:02:48.944Z,0
2022-12-28T03:03:48.678Z,0
2022-12-28T03:04:49.173Z,0
2022-12-28T03:05:49.225Z,0
2022-12-28T03:06:49.793Z,0
2022-12-28T03:07:49.730Z,0
2022-12-28T03:08:50.342Z,0
2022-12-28T03:09:51.272Z,0
2022-12-28T03:10:51.920Z,0
2022-12-28T03:11:52.615Z,0
2022-12-28T03:12:52.540Z,0
2022-12-28T03:13:53.473Z,0
2022-12-28T03:14:54.398Z,0
2022-12-28T03:15:54.980Z,0
2022-12-28T03:16:54.944Z,0
2022-12-28T03:17:56.420Z,0
2022-12-28T03:18:56.393Z,0
2022-12-28T03:19:56.610Z,0
2022-12-28T03:20:56.809Z,0
2022-12-28T03:21:57.489Z,0
2022-12-28T03:22:58.706Z,0
2022-12-28T03:23:58.694Z,0
2022-12-28T03:24:59.670Z,0
2022-12-28T03:26:00.284Z,0
2022-12-28T03:27:00.224Z,0
2022-12-28T03:28:00.968Z,0
2022-12-28T03:29:02.464Z,0
2022-12-28T03:30:02.675Z,0
2022-12-28T03:31:02.779Z,0
2022-12-28T03:32:03.534Z,0
2022-12-28T03:33:04.021Z,0
2022-12-28T03:34:03.781Z,0
2022-12-28T03:35:04.866Z,0
2022-12-28T03:36:05.333Z,0
2022-12-28T03:37:06.295Z,0
2022-12-28T03:38:06.816Z,0
2022-12-28T03:39:06.446Z,0
2022-12-28T03:40:07.110Z,0
2022-12-28T03:41:07.597Z,0
2022-12-28T03:42:07.833Z,0
2022-12-28T03:43:08.389Z,0
2022-12-28T03:44:08.965Z,0
2022-12-28T03:45:08.787Z,0
2022-12-28T03:46:27.546Z,0
2022-12-28T03:47:27.558Z,0
2022-12-28T03:48:28.522Z,0
2022-12-28T03:49:28.765Z,0
2022-12-28T03:50:28.953Z,0
2022-12-28T03:51:30.187Z,0
2022-12-28T03:52:30.153Z,0
2022-12-28T03:53:31.414Z,0
2022-12-28T03:54:32.351Z,0
2022-12-28T03:55:32.967Z,0
2022-12-28T03:56:33.470Z,0
2022-12-28T03:57:33.695Z,0
2022-12-28T03:58:33.900Z,0
2022-12-28T03:59:34.140Z,0
2022-12-28T04:00:34.813Z,0
2022-12-28T04:01:36.864Z,0
2022-12-28T04:02:37.204Z,0
2022-12-28T04:03:37.300Z,0
2022-12-28T04:04:37.262Z,0
2022-12-28T04:05:38.467Z,0
2022-12-28T04:06:39.082Z,0
2022-12-28T04:07:39.357Z,0
2022-12-28T04:08:40.595Z,0
2022-12-28T04:09:40.858Z,0
2022-12-28T04:10:41.357Z,0
2022-12-28T04:11:41.579Z,0
2022-12-28T04:12:41.813Z,0
2022-12-28T04:13:42.029Z,0
2022-12-28T04:14:42.236Z,0
2022-12-28T04:15:42.304Z,0
2022-12-28T04:16:42.576Z,0
2022-12-28T04:17:43.503Z,0
2022-12-28T04:18:44.726Z,0
2022-12-28T04:19:44.948Z,0
2022-12-28T04:20:45.202Z,0
2022-12-28T04:21:45.560Z,0
2022-12-28T04:22:46.505Z,0
2022-12-28T04:23:47.464Z,0
2022-12-28T04:24:48.369Z,0
2022-12-28T04:25:48.855Z,0
2022-12-28T04:26:49.196Z,0
2022-12-28T04:27:49.142Z,0
2022-12-28T04:28:50.070Z,0
2022-12-28T04:29:50.286Z,0
2022-12-28T04:30:51.376Z,0
2022-12-28T04:31:51.949Z,0
2022-12-28T04:32:51.609Z,0
2022-12-28T04:33:53.104Z,0
2022-12-28T04:34:59.340Z,0
2022-12-28T04:35:53.552Z,0
2022-12-28T04:36:54.273Z,0
2022-12-28T04:37:54.237Z,0
2022-12-28T04:38:54.478Z,0
2022-12-28T04:40:08.180Z,0
2022-12-28T04:40:54.797Z,0
2022-12-28T04:41:56.466Z,0
2022-12-28T04:42:56.436Z,0
2022-12-28T04:43:57.641Z,0
2022-12-28T04:44:57.901Z,0
2022-12-28T04:45:57.859Z,0
2022-12-28T04:46:58.519Z,0
2022-12-28T04:47:59.234Z,0
2022-12-28T04:49:00.192Z,0
2022-12-28T04:50:00.562Z,0
2022-12-28T04:51:02.091Z,0
2022-12-28T04:52:01.750Z,0
2022-12-28T04:53:03.298Z,0
2022-12-28T04:54:04.005Z,0
2022-12-28T04:55:05.281Z,0
2022-12-28T04:56:05.408Z,0
2022-12-28T04:57:06.135Z,0
2022-12-28T04:58:06.523Z,0
2022-12-28T04:59:07.767Z,0
2022-12-28T05:00:08.010Z,0
2022-12-28T05:01:08.258Z,0
2022-12-28T05:02:09.479Z,0
2022-12-28T05:03:10.573Z,0
2022-12-28T05:04:11.365Z,0
2022-12-28T05:05:11.015Z,0
2022-12-28T05:06:11.989Z,0
2022-12-28T05:07:12.583Z,0
2022-12-28T05:08:13.130Z,0
2022-12-28T05:09:13.636Z,0
2022-12-28T05:10:13.947Z,0
2022-12-28T05:11:14.906Z,0
2022-12-28T05:12:15.835Z,0
2022-12-28T05:13:16.356Z,0
2022-12-28T05:14:16.642Z,0
2022-12-28T05:15:17.319Z,0
2022-12-28T05:16:18.439Z,0
2022-12-28T05:17:17.698Z,0
2022-12-28T05:18:18.609Z,0
2022-12-28T05:19:21.268Z,0
2022-12-28T05:20:19.923Z,0
2022-12-28T05:21:21.186Z,0
2022-12-28T05:22:21.112Z,0
2022-12-28T05:23:22.661Z,0
2022-12-28T05:24:23.184Z,0
2022-12-28T05:25:23.113Z,0
2022-12-28T05:26:24.058Z,0
2022-12-28T05:27:24.665Z,0
2022-12-28T05:28:25.321Z,0
2022-12-28T05:29:25.964Z,0
2022-12-28T05:30:26.217Z,0
2022-12-28T05:31:27.526Z,0
2022-12-28T05:32:28.084Z,0
2022-12-28T05:33:29.335Z,0
2022-12-28T05:34:28.401Z,0
2022-12-28T05:35:29.324Z,0
2022-12-28T05:36:30.056Z,0
2022-12-28T05:37:33.717Z,0
2022-12-28T05:38:30.999Z,0
2022-12-28T05:39:32.263Z,0
2022-12-28T05:40:32.466Z,0
2022-12-28T05:41:32.418Z,0
2022-12-28T05:42:33.071Z,0
2022-12-28T05:43:34.333Z,0
2022-12-28T05:44:34.258Z,0
2022-12-28T05:45:34.601Z,0
2022-12-28T05:46:35.794Z,0
2022-12-28T05:47:36.023Z,0
2022-12-28T05:48:35.953Z,0
2022-12-28T05:49:37.175Z,0
2022-12-28T05:50:37.688Z,0
2022-12-28T05:51:39.864Z,0
2022-12-28T05:52:38.778Z,0
2022-12-28T05:53:39.459Z,0
2022-12-28T05:54:39.431Z,0
2022-12-28T05:55:40.375Z,0
2022-12-28T05:56:41.033Z,0
2022-12-28T05:57:41.470Z,0
2022-12-28T05:58:42.727Z,0
2022-12-28T05:59:42.394Z,0
2022-12-28T06:00:43.877Z,0
2022-12-28T06:01:45.035Z,0
2022-12-28T06:02:45.066Z,0
2022-12-28T06:03:45.747Z,0
2022-12-28T06:04:45.116Z,0
2022-12-28T06:05:46.054Z,0
2022-12-28T06:06:46.736Z,0
2022-12-28T06:07:47.400Z,0
2022-12-28T06:08:47.944Z,0
2022-12-28T06:09:48.886Z,0
2022-12-28T06:10:48.832Z,0
2022-12-28T06:11:49.991Z,0
2022-12-28T06:12:49.915Z,0
2022-12-28T06:13:50.226Z,0
2022-12-28T06:14:51.461Z,0
2022-12-28T06:15:51.107Z,0
2022-12-28T06:16:52.706Z,0
2022-12-28T06:17:52.548Z,0
2022-12-28T06:18:53.528Z,0
2022-12-28T06:19:53.741Z,0
2022-12-28T06:21:02.704Z,0
2022-12-28T06:21:55.657Z,0
2022-12-28T06:22:56.303Z,0
2022-12-28T06:23:57.568Z,0
2022-12-28T06:24:58.515Z,0
2022-12-28T06:25:58.448Z,0
2022-12-28T06:26:59.091Z,0
2022-12-28T06:28:00.142Z,0
2022-12-28T06:29:00.378Z,0
2022-12-28T06:30:00.600Z,0
2022-12-28T06:31:03.860Z,0
2022-12-28T06:32:02.145Z,0
2022-12-28T06:33:01.621Z,0
2022-12-28T06:34:02.903Z,0
2022-12-28T06:35:03.136Z,4
2022-12-28T06:36:03.128Z,4
2022-12-28T06:37:04.699Z,0
2022-12-28T06:38:04.986Z,0
2022-12-28T06:39:05.526Z,4
2022-12-28T06:40:06.077Z,4
2022-12-28T06:41:24.470Z,4
2022-12-28T06:42:06.706Z,4
2022-12-28T06:43:07.902Z,4
2022-12-28T06:44:08.128Z,4
2022-12-28T06:45:08.087Z,8
2022-12-28T06:46:09.585Z,8
2022-12-28T06:47:09.594Z,12
2022-12-28T06:48:10.658Z,8
2022-12-28T06:49:11.156Z,12
2022-12-28T06:50:11.360Z,12
2022-12-28T06:51:11.297Z,16
2022-12-28T06:52:11.841Z,16
2022-12-28T06:53:11.758Z,16
2022-12-28T06:54:12.033Z,20
2022-12-28T06:55:13.333Z,24
2022-12-28T06:56:14.253Z,24
2022-12-28T06:57:14.469Z,32
2022-12-28T06:58:15.197Z,36
2022-12-28T06:59:16.242Z,40
2022-12-28T07:00:17.182Z,40
2022-12-28T07:01:18.688Z,44
2022-12-28T07:02:19.002Z,44
2022-12-28T07:03:19.150Z,48
2022-12-28T07:04:19.094Z,48
2022-12-28T07:05:20.032Z,56
2022-12-28T07:06:20.682Z,56
2022-12-28T07:07:21.346Z,64
2022-12-28T07:08:23.998Z,68
2022-12-28T07:09:22.608Z,72
2022-12-28T07:10:22.559Z,76
2022-12-28T07:11:23.799Z,80
2022-12-28T07:12:23.453Z,84
2022-12-28T07:13:33.894Z,92
2022-12-28T07:14:24.871Z,96
2022-12-28T07:15:26.091Z,96
2022-12-28T07:16:26.328Z,104
2022-12-28T07:17:27.608Z,116
2022-12-28T07:18:28.033Z,124
2022-12-28T07:19:28.945Z,128
2022-12-28T07:20:30.250Z,136
2022-12-28T07:21:30.686Z,148
2022-12-28T07:22:30.933Z,156
2022-12-28T07:23:31.858Z,164
2022-12-28T07:24:32.104Z,176
2022-12-28T07:25:32.614Z,188
2022-12-28T07:26:32.595Z,196
2022-12-28T07:27:33.541Z,200
2022-12-28T07:28:34.909Z,208
2022-12-28T07:29:36.135Z,216
2022-12-28T07:30:36.631Z,224
2022-12-28T07:31:41.903Z,236
2022-12-28T07:32:37.250Z,244
2022-12-28T07:33:37.989Z,264
2022-12-28T07:34:38.204Z,292
2022-12-28T07:35:38.131Z,308
2022-12-28T07:36:38.552Z,316
2022-12-28T07:37:39.294Z,320
2022-12-28T07:38:40.297Z,316
2022-12-28T07:39:41.828Z,320
2022-12-28T07:40:42.359Z,336
2022-12-28T07:41:42.597Z,360
2022-12-28T07:42:43.534Z,384
2022-12-28T07:43:44.028Z,404
2022-12-28T07:44:55.042Z,436
2022-12-28T07:45:44.903Z,452
2022-12-28T07:46:45.640Z,464
2022-12-28T07:47:46.849Z,476
2022-12-28T07:48:47.452Z,488
2022-12-28T07:49:48.105Z,500
2022-12-28T07:50:49.483Z,520
2022-12-28T07:51:49.424Z,556
2022-12-28T07:52:50.394Z,616
2022-12-28T07:53:51.045Z,612
2022-12-28T07:54:52.303Z,540
2022-12-28T07:55:53.259Z,532
2022-12-28T07:56:52.880Z,544
2022-12-28T07:57:53.824Z,552
2022-12-28T07:58:54.208Z,560
2022-12-28T07:59:55.162Z,564
2022-12-28T08:00:55.937Z,560
2022-12-28T08:01:56.084Z,548
2022-12-28T08:02:56.723Z,548
2022-12-28T08:03:56.737Z,540
2022-12-28T08:05:03.285Z,532
2022-12-28T08:05:56.662Z,520
2022-12-28T08:06:57.886Z,524
2022-12-28T08:08:03.298Z,528
2022-12-28T08:08:59.106Z,540
2022-12-28T08:09:59.146Z,556
2022-12-28T08:11:00.132Z,572
2022-12-28T08:12:00.971Z,588
2022-12-28T08:13:01.455Z,608
2022-12-28T08:14:01.119Z,632
2022-12-28T08:15:02.048Z,668
2022-12-28T08:16:03.286Z,688
2022-12-28T08:17:03.589Z,744
2022-12-28T08:18:04.241Z,812
2022-12-28T08:19:04.833Z,904
2022-12-28T08:20:04.968Z,1128
2022-12-28T08:21:05.175Z,1352
2022-12-28T08:22:05.100Z,1604
2022-12-28T08:23:06.623Z,1840
2022-12-28T08:24:06.546Z,2056
2022-12-28T08:25:07.099Z,2344
2022-12-28T08:26:07.052Z,2720
2022-12-28T08:27:08.281Z,2184
2022-12-28T08:28:09.089Z,1648
2022-12-28T08:29:09.440Z,1404
2022-12-28T08:30:09.090Z,1276
2022-12-28T08:31:10.607Z,1012
2022-12-28T08:32:10.387Z,960
2022-12-28T08:33:11.610Z,972
2022-12-28T08:34:12.866Z,904
2022-12-28T08:35:13.390Z,1176
2022-12-28T08:36:13.619Z,1208
2022-12-28T08:37:14.547Z,1056
2022-12-28T08:38:15.074Z,1120
2022-12-28T08:39:15.356Z,1328
2022-12-28T08:40:15.627Z,2376
2022-12-28T08:41:16.199Z,2660
2022-12-28T08:42:17.163Z,3108
2022-12-28T08:43:17.384Z,2772
2022-12-28T08:44:18.321Z,2432
2022-12-28T08:45:18.535Z,2008
2022-12-28T08:46:19.554Z,2020
2022-12-28T08:47:19.276Z,2112
2022-12-28T08:48:19.486Z,1800
2022-12-28T08:49:20.303Z,1844
2022-12-28T08:50:32.039Z,1796
2022-12-28T08:51:22.036Z,1736
2022-12-28T08:52:22.248Z,1684
2022-12-28T08:53:22.185Z,1648
2022-12-28T08:54:23.730Z,1676
2022-12-28T08:55:24.288Z,1640
2022-12-28T08:56:24.864Z,1600
2022-12-28T08:57:25.123Z,1608
2022-12-28T08:58:25.060Z,1524
2022-12-28T08:59:26.113Z,1508
2022-12-28T09:00:27.348Z,1452
2022-12-28T09:01:28.077Z,1504
2022-12-28T09:02:29.393Z,1372
2022-12-28T09:03:29.310Z,1376
2022-12-28T09:04:30.027Z,1408
2022-12-28T09:05:34.543Z,1432
2022-12-28T09:06:31.454Z,1484
2022-12-28T09:07:32.660Z,1532
2022-12-28T09:08:32.619Z,1584
2022-12-28T09:09:33.364Z,1644
2022-12-28T09:10:33.889Z,1684
2022-12-28T09:11:33.551Z,1760
2022-12-28T09:12:34.812Z,1836
2022-12-28T09:13:36.021Z,2020
2022-12-28T09:14:36.402Z,2068
2022-12-28T09:15:36.685Z,2120
2022-12-28T09:16:38.134Z,2348
2022-12-28T09:17:37.806Z,2676
2022-12-28T09:18:38.743Z,4324
2022-12-28T09:19:39.765Z,2340
2022-12-28T09:20:46.059Z,2516
2022-12-28T09:21:41.333Z,2404
2022-12-28T09:22:42.265Z,2312
2022-12-28T09:23:42.515Z,2160
2022-12-28T09:24:42.744Z,2136
2022-12-28T09:25:43.054Z,2324
2022-12-28T09:26:44.006Z,1888
2022-12-28T09:27:44.231Z,1780
2022-12-28T09:28:44.880Z,2052
2022-12-28T09:29:45.407Z,1696
2022-12-28T09:30:46.649Z,1620
2022-12-28T09:31:48.202Z,1704
2022-12-28T09:32:48.113Z,1972
2022-12-28T09:34:46.085Z,2208
2022-12-28T09:35:03.000Z,2376
2022-12-28T09:36:03.659Z,3256
2022-12-28T09:37:05.152Z,5164
2022-12-28T09:38:05.080Z,7808
2022-12-28T09:39:06.305Z,7884
2022-12-28T09:40:12.300Z,8616
2022-12-28T09:41:07.261Z,8724
2022-12-28T09:42:08.563Z,8392
2022-12-28T09:43:08.487Z,8004
2022-12-28T09:44:09.406Z,6320
2022-12-28T09:45:09.625Z,5308
2022-12-28T09:46:11.042Z,5816
2022-12-28T09:47:11.152Z,5680
2022-12-28T09:48:11.080Z,5780
2022-12-28T09:49:12.018Z,5932
2022-12-28T09:50:12.685Z,4892
2022-12-28T09:51:12.920Z,2944
2022-12-28T09:52:13.134Z,2628
2022-12-28T09:53:14.072Z,3356
2022-12-28T09:54:14.396Z,3820
2022-12-28T09:55:14.638Z,4976
2022-12-28T09:56:15.200Z,6332
2022-12-28T09:57:15.437Z,6120
2022-12-28T09:58:16.376Z,5376
2022-12-28T09:59:17.678Z,3388
2022-12-28T10:00:17.981Z,2768
2022-12-28T10:01:18.360Z,2804
2022-12-28T10:02:19.293Z,2460
2022-12-28T10:03:19.380Z,2012
2022-12-28T10:04:19.794Z,2056
2022-12-28T10:05:20.018Z,2308
2022-12-28T10:06:20.952Z,3128
2022-12-28T10:07:21.910Z,3016
2022-12-28T10:08:21.887Z,3876
2022-12-28T10:09:22.565Z,4524
2022-12-28T10:10:23.517Z,4992
2022-12-28T10:11:24.511Z,5908
2022-12-28T10:12:25.217Z,5240
2022-12-28T10:14:04.027Z,4748
2022-12-28T10:14:26.707Z,4176
2022-12-28T10:15:27.638Z,4000
2022-12-28T10:16:28.080Z,3544
2022-12-28T10:17:29.111Z,2788
2022-12-28T10:18:28.764Z,2788
2022-12-28T10:19:29.773Z,2628
2022-12-28T10:20:30.942Z,2520
2022-12-28T10:21:38.661Z,3112
2022-12-28T10:22:31.606Z,3520
2022-12-28T10:23:31.852Z,3500
2022-12-28T10:24:43.048Z,2024
2022-12-28T10:25:32.998Z,1920
2022-12-28T10:26:33.709Z,2124
2022-12-28T10:27:35.257Z,2888
2022-12-28T10:28:35.254Z,2012
2022-12-28T10:29:35.972Z,2100
2022-12-28T10:30:36.382Z,2052
2022-12-28T10:31:37.498Z,1736
2022-12-28T10:32:37.894Z,2048
2022-12-28T10:33:38.256Z,3220
2022-12-28T10:34:44.698Z,3940
2022-12-28T10:35:38.729Z,2812
2022-12-28T10:36:43.195Z,3804
2022-12-28T10:37:40.484Z,2880
2022-12-28T10:38:40.668Z,2644
2022-12-28T10:39:41.777Z,2296
2022-12-28T10:40:41.344Z,2464
2022-12-28T10:41:41.896Z,5900
2022-12-28T10:42:42.159Z,6148
2022-12-28T10:43:43.196Z,6628
2022-12-28T10:44:51.861Z,5412
2022-12-28T10:45:44.101Z,4196
2022-12-28T10:46:45.839Z,9140
2022-12-28T10:47:46.736Z,9696
2022-12-28T10:48:46.987Z,11328
2022-12-28T10:50:36.950Z,12384
2022-12-28T10:51:25.560Z,10352
2022-12-28T10:52:26.487Z,10344
2022-12-28T10:53:28.358Z,12308
2022-12-28T10:54:39.105Z,12432
2022-12-28T10:55:28.231Z,3988
2022-12-28T10:56:28.496Z,11176
2022-12-28T10:57:28.347Z,11000
2022-12-28T11:01:32.674Z,3180
2022-12-28T11:02:33.890Z,11620
2022-12-28T11:03:33.892Z,9220
2022-12-28T11:04:34.130Z,5676
2022-12-28T11:05:34.357Z,11180
2022-12-28T11:06:38.318Z,9844
2022-12-28T11:07:35.572Z,9976
2022-12-28T11:08:36.496Z,9964
2022-12-28T11:09:36.477Z,8840
2022-12-28T11:10:37.754Z,7488
2022-12-28T11:11:38.415Z,6916
2022-12-28T11:12:40.099Z,6860
2022-12-28T11:13:40.351Z,6800
2022-12-28T11:14:41.304Z,6328
2022-12-28T11:15:41.529Z,7412
2022-12-28T11:16:42.153Z,7220
2022-12-28T11:17:43.476Z,7900
2022-12-28T11:18:49.093Z,8680
2022-12-28T11:19:45.318Z,8072
2022-12-28T11:20:45.563Z,6588
2022-12-28T11:21:45.501Z,5948
2022-12-28T11:22:46.293Z,6520
2022-12-28T11:23:46.263Z,6244
2022-12-28T11:24:50.791Z,5404
2022-12-28T11:25:48.002Z,5452
2022-12-28T11:26:48.239Z,7292
2022-12-28T11:27:48.516Z,7380
2022-12-28T11:28:50.147Z,7628
2022-12-28T11:29:49.423Z,8556
2022-12-28T11:30:49.759Z,8552
2022-12-28T11:31:50.090Z,8916
2022-12-28T11:32:50.521Z,8020
2022-12-28T11:33:50.743Z,5444
2022-12-28T11:34:52.052Z,3912
2022-12-28T11:35:55.005Z,3468
2022-12-28T11:36:52.305Z,3300
2022-12-28T11:37:52.799Z,3340
2022-12-28T11:38:53.022Z,3972
2022-12-28T11:39:53.687Z,3436
2022-12-28T11:40:54.119Z,3012
2022-12-28T11:42:46.192Z,3224
2022-12-28T11:43:33.985Z,3104
2022-12-28T11:44:34.648Z,3040
2022-12-28T11:45:36.109Z,3520
2022-12-28T11:46:37.008Z,4640
2022-12-28T11:47:39.716Z,5196
2022-12-28T11:48:37.947Z,5604
2022-12-28T11:49:38.250Z,4740
2022-12-28T11:50:38.279Z,4008
2022-12-28T11:51:39.643Z,4420
2022-12-28T11:52:39.963Z,4824
2022-12-28T11:53:40.034Z,4712
2022-12-28T11:54:40.999Z,4100
2022-12-28T11:55:41.515Z,3780
2022-12-28T11:56:41.741Z,3308
2022-12-28T11:57:42.003Z,3304
2022-12-28T11:58:43.018Z,2992
2022-12-28T11:59:43.570Z,3200
2022-12-28T12:00:43.787Z,2892
2022-12-28T12:01:45.469Z,3076
2022-12-28T12:02:45.958Z,2980
2022-12-28T12:03:46.589Z,2776
2022-12-28T12:04:46.642Z,3316
2022-12-28T12:05:47.636Z,3104
2022-12-28T12:06:51.387Z,3404
2022-12-28T12:07:48.635Z,3508
2022-12-28T12:08:49.000Z,3548
2022-12-28T12:09:50.240Z,3776
2022-12-28T12:10:50.639Z,3980
2022-12-28T12:11:51.582Z,3992
2022-12-28T12:12:52.786Z,4792
2022-12-28T12:13:54.243Z,4256
2022-12-28T12:14:54.809Z,3520
2022-12-28T12:15:54.534Z,3208
2022-12-28T12:16:55.733Z,2384
2022-12-28T12:17:55.797Z,2228
2022-12-28T12:18:56.776Z,3136
2022-12-28T12:19:57.742Z,3228
2022-12-28T12:20:58.195Z,3024
2022-12-28T12:21:58.119Z,3172
2022-12-28T12:22:58.354Z,3292
2022-12-28T12:23:59.403Z,3552
2022-12-28T12:25:00.446Z,3120
2022-12-28T12:26:01.404Z,4240
2022-12-28T12:27:01.347Z,3440
2022-12-28T12:28:02.972Z,3880
2022-12-28T12:29:03.964Z,3500
2022-12-28T12:30:04.553Z,3228
2022-12-28T12:31:04.734Z,3344
2022-12-28T12:32:05.029Z,4360
2022-12-28T12:33:06.279Z,5832
2022-12-28T12:34:06.624Z,6168
2022-12-28T12:35:06.624Z,6984
2022-12-28T12:36:08.209Z,7388
2022-12-28T12:37:08.154Z,6472
2022-12-28T12:38:08.120Z,5788
2022-12-28T12:39:09.691Z,6052
2022-12-28T12:40:10.094Z,6060
2022-12-28T12:41:10.098Z,6044
2022-12-28T12:42:10.800Z,5980
2022-12-28T12:43:11.735Z,6308
2022-12-28T12:44:12.804Z,6680
2022-12-28T12:45:13.339Z,6136
2022-12-28T12:46:13.708Z,5344
2022-12-28T12:47:17.095Z,4896
2022-12-28T12:48:14.312Z,3784
2022-12-28T12:49:14.270Z,3128
2022-12-28T12:50:15.363Z,3720
2022-12-28T12:51:15.605Z,4072
2022-12-28T12:52:16.263Z,3752
2022-12-28T12:53:17.492Z,3476
2022-12-28T12:54:17.858Z,3188
2022-12-28T12:55:18.775Z,2908
2022-12-28T12:56:20.036Z,2532
2022-12-28T12:57:20.282Z,2452
2022-12-28T12:58:20.512Z,2604
2022-12-28T12:59:21.783Z,3108
2022-12-28T13:00:22.527Z,3324
2022-12-28T13:01:22.846Z,3620
2022-12-28T13:02:24.046Z,3352
2022-12-28T13:03:23.686Z,3392
2022-12-28T13:04:24.186Z,3796
2022-12-28T13:05:24.099Z,4420
2022-12-28T13:06:24.635Z,4872
2022-12-28T13:07:24.306Z,3772
2022-12-28T13:08:25.530Z,3044
2022-12-28T13:09:25.765Z,2688
2022-12-28T13:10:26.706Z,2812
2022-12-28T13:11:27.087Z,2596
2022-12-28T13:12:28.313Z,2736
2022-12-28T13:13:28.954Z,2704
2022-12-28T13:14:29.653Z,3052
2022-12-28T13:15:30.350Z,2888
2022-12-28T13:16:30.774Z,3160
2022-12-28T13:17:31.001Z,2952
2022-12-28T13:19:01.652Z,3232
2022-12-28T13:19:32.890Z,3276
2022-12-28T13:20:33.541Z,3792
2022-12-28T13:21:34.514Z,3868
2022-12-28T13:22:35.010Z,3788
2022-12-28T13:23:35.233Z,4088
2022-12-28T13:24:35.558Z,4320
2022-12-28T13:25:35.527Z,4444
2022-12-28T13:26:36.497Z,4056
2022-12-28T13:27:37.135Z,4056
2022-12-28T13:28:37.830Z,4580
2022-12-28T13:29:38.553Z,4804
2022-12-28T13:30:39.046Z,4860
2022-12-28T13:31:39.075Z,4772
2022-12-28T13:32:45.731Z,4436
2022-12-28T13:33:40.111Z,4172
2022-12-28T13:34:41.433Z,3920
2022-12-28T13:35:42.085Z,3528
2022-12-28T13:36:43.686Z,3352
2022-12-28T13:37:44.361Z,3168
2022-12-28T13:38:45.638Z,2856
2022-12-28T13:39:53.283Z,3028
2022-12-28T13:40:46.589Z,3060
2022-12-28T13:41:46.844Z,2956
2022-12-28T13:42:47.063Z,3252
2022-12-28T13:43:47.273Z,3284
2022-12-28T13:44:48.352Z,3428
2022-12-28T13:45:56.734Z,3340
2022-12-28T13:46:49.730Z,3160
2022-12-28T13:47:50.929Z,3424
2022-12-28T13:48:51.429Z,3468
2022-12-28T13:49:51.686Z,3524
2022-12-28T13:50:51.334Z,3596
2022-12-28T13:51:59.349Z,3668
2022-12-28T13:52:53.305Z,3576
2022-12-28T13:53:53.648Z,3240
2022-12-28T13:54:54.427Z,3432
2022-12-28T13:55:55.654Z,3212
2022-12-28T13:57:08.558Z,3100
2022-12-28T13:58:10.692Z,3044
2022-12-28T13:59:07.654Z,2812
2022-12-28T14:00:08.986Z,2612
2022-12-28T14:01:10.012Z,2592
2022-12-28T14:02:11.158Z,2428
2022-12-28T14:03:10.628Z,2228
2022-12-28T14:04:58.843Z,1868
2022-12-28T14:05:47.369Z,904
2022-12-28T14:06:47.186Z,764
2022-12-28T14:07:47.850Z,708
2022-12-28T14:08:48.504Z,664
2022-12-28T14:09:49.720Z,676
2022-12-28T14:10:50.976Z,616
2022-12-28T14:11:51.320Z,620
2022-12-28T14:12:52.259Z,600
2022-12-28T14:13:53.480Z,596
2022-12-28T14:14:53.976Z,592
2022-12-28T14:15:53.485Z,604
2022-12-28T14:16:54.142Z,612